DLH9KX EDDF-EDDH
Flight info
| Callsign | DLH9KX |
|---|---|
| Flight time | N/A |
| Altitude | 33000 |
| Route | MARUN2D MARUN Y150 TOLGI DCT SAS P605 NOLGO NOLGO6A |
| Aircraft | A320/M-SDE3FGHIRWY/LB1 |
Departure
| Time | 2026-05-08 04:32 |
|---|---|
| Airport | Frankfurt Main Airport (EDDF) |
Arrival
| Time | N/A |
|---|---|
| Airport | Hamburg Helmut Schmidt Airport (EDDH) |
| Time | Latitude | Longitude | Altitude | Speed | Heading |
|---|---|---|---|---|---|
| 2026-05-08 03:58 | 50.03880 | 8.54887 | 354 ft | 0 kts | 159° |
| 2026-05-08 04:02 | 50.03890 | 8.54881 | 351 ft | 0 kts | 159° |
| 2026-05-08 04:29 | 50.03879 | 8.54888 | 360 ft | 3 kts | 159° |
| 2026-05-08 04:29 | 50.03821 | 8.54907 | 355 ft | 14 kts | 188° |
| 2026-05-08 04:29 | 50.03770 | 8.54787 | 350 ft | 13 kts | 250° |
| 2026-05-08 04:29 | 50.03739 | 8.54656 | 349 ft | 13 kts | 249° |
| 2026-05-08 04:30 | 50.03708 | 8.54526 | 344 ft | 13 kts | 250° |
| 2026-05-08 04:30 | 50.03676 | 8.54391 | 350 ft | 13 kts | 250° |
| 2026-05-08 04:30 | 50.03623 | 8.54303 | 345 ft | 11 kts | 176° |
| 2026-05-08 04:30 | 50.03554 | 8.54341 | 343 ft | 10 kts | 159° |
| 2026-05-08 04:31 | 50.03508 | 8.54383 | 348 ft | 7 kts | 131° |
| 2026-05-08 04:31 | 50.03505 | 8.54450 | 349 ft | 6 kts | 75° |
| 2026-05-08 04:31 | 50.03510 | 8.54480 | 352 ft | 0 kts | 75° |
| 2026-05-08 04:31 | 50.03543 | 8.54630 | 347 ft | 48 kts | 70° |
| 2026-05-08 04:32 | 50.03748 | 8.55490 | 351 ft | 117 kts | 70° |
| 2026-05-08 04:32 | 50.04080 | 8.56899 | 512 ft | 154 kts | 68° |
| 2026-05-08 04:32 | 50.04425 | 8.58502 | 1185 ft | 159 kts | 71° |
| 2026-05-08 04:32 | 50.04771 | 8.60160 | 1907 ft | 162 kts | 72° |
| 2026-05-08 04:33 | 50.05130 | 8.61894 | 2425 ft | 176 kts | 68° |
| 2026-05-08 04:33 | 50.05640 | 8.63701 | 2962 ft | 188 kts | 66° |
| 2026-05-08 04:33 | 50.06146 | 8.65649 | 3420 ft | 204 kts | 70° |
| 2026-05-08 04:33 | 50.06638 | 8.67857 | 3817 ft | 226 kts | 71° |
| 2026-05-08 04:34 | 50.07258 | 8.70138 | 4618 ft | 232 kts | 55° |
| 2026-05-08 04:34 | 50.08453 | 8.71884 | 5287 ft | 247 kts | 27° |
| 2026-05-08 04:34 | 50.10087 | 8.73023 | 5870 ft | 265 kts | 21° |
| 2026-05-08 04:34 | 50.11809 | 8.74156 | 6753 ft | 271 kts | 21° |
| 2026-05-08 04:35 | 50.13562 | 8.75321 | 7641 ft | 276 kts | 21° |
| 2026-05-08 04:35 | 50.15344 | 8.76514 | 8542 ft | 281 kts | 22° |
| 2026-05-08 04:35 | 50.17157 | 8.77735 | 9438 ft | 286 kts | 22° |
| 2026-05-08 04:35 | 50.19007 | 8.78983 | 10295 ft | 293 kts | 22° |
| 2026-05-08 04:36 | 50.20948 | 8.80299 | 10662 ft | 316 kts | 22° |
| 2026-05-08 04:36 | 50.23036 | 8.81721 | 10948 ft | 340 kts | 22° |
| 2026-05-08 04:36 | 50.25281 | 8.83232 | 11245 ft | 360 kts | 20° |
| 2026-05-08 04:36 | 50.27717 | 8.84229 | 11861 ft | 366 kts | 6° |
| 2026-05-08 04:37 | 50.30267 | 8.84297 | 12602 ft | 369 kts | 353° |
| 2026-05-08 04:37 | 50.32824 | 8.83775 | 13380 ft | 372 kts | 351° |
| 2026-05-08 04:37 | 50.35398 | 8.83229 | 14122 ft | 376 kts | 351° |
| 2026-05-08 04:37 | 50.38002 | 8.82671 | 14791 ft | 379 kts | 351° |
| 2026-05-08 04:38 | 50.40631 | 8.82107 | 15447 ft | 383 kts | 351° |
| 2026-05-08 04:38 | 50.43281 | 8.81536 | 16095 ft | 386 kts | 351° |
| 2026-05-08 04:38 | 50.45961 | 8.80961 | 16734 ft | 390 kts | 351° |
| 2026-05-08 04:38 | 50.48661 | 8.80388 | 17342 ft | 394 kts | 351° |
| 2026-05-08 04:39 | 50.51389 | 8.79808 | 17960 ft | 397 kts | 351° |
| 2026-05-08 04:39 | 50.54142 | 8.79221 | 18551 ft | 401 kts | 351° |
| 2026-05-08 04:39 | 50.56915 | 8.78585 | 19073 ft | 404 kts | 347° |
| 2026-05-08 04:39 | 50.59641 | 8.77465 | 19585 ft | 406 kts | 342° |
| 2026-05-08 04:40 | 50.62360 | 8.76226 | 20109 ft | 408 kts | 342° |
| 2026-05-08 04:40 | 50.65097 | 8.74978 | 20633 ft | 411 kts | 342° |
| 2026-05-08 04:40 | 50.67818 | 8.73733 | 21140 ft | 414 kts | 342° |
| 2026-05-08 04:40 | 50.70631 | 8.72443 | 21655 ft | 417 kts | 342° |
| 2026-05-08 04:41 | 50.73385 | 8.71186 | 22149 ft | 419 kts | 343° |
| 2026-05-08 04:41 | 50.76280 | 8.70458 | 22608 ft | 426 kts | 358° |
| 2026-05-08 04:41 | 50.79228 | 8.71060 | 23068 ft | 432 kts | 15° |
| 2026-05-08 04:41 | 50.81969 | 8.73061 | 23520 ft | 438 kts | 33° |
| 2026-05-08 04:42 | 50.84383 | 8.76043 | 23917 ft | 442 kts | 38° |
| 2026-05-08 04:42 | 50.86772 | 8.79128 | 24302 ft | 445 kts | 38° |
| 2026-05-08 04:42 | 50.89182 | 8.82246 | 24670 ft | 447 kts | 38° |
| 2026-05-08 04:42 | 50.91600 | 8.85372 | 25050 ft | 450 kts | 38° |
| 2026-05-08 04:43 | 50.94032 | 8.88509 | 25424 ft | 452 kts | 38° |
| 2026-05-08 04:43 | 50.96479 | 8.91663 | 25787 ft | 455 kts | 37° |
| 2026-05-08 04:43 | 50.98939 | 8.94838 | 26145 ft | 457 kts | 37° |
| 2026-05-08 04:43 | 51.01410 | 8.98035 | 26496 ft | 459 kts | 37° |
| 2026-05-08 04:44 | 51.03893 | 9.01256 | 26845 ft | 462 kts | 37° |
| 2026-05-08 04:44 | 51.06382 | 9.04491 | 27181 ft | 464 kts | 37° |
| 2026-05-08 04:44 | 51.08037 | 9.06643 | 27392 ft | 465 kts | 37° |